createdAt,value
2022-10-17T00:00:44.935Z,15.79
2022-10-17T00:01:44.977Z,15.77
2022-10-17T00:02:44.946Z,15.77
2022-10-17T00:03:44.922Z,15.79
2022-10-17T00:04:44.896Z,15.79
2022-10-17T00:05:44.887Z,15.80
2022-10-17T00:06:44.899Z,15.80
2022-10-17T00:07:44.868Z,15.80
2022-10-17T00:08:44.889Z,15.80
2022-10-17T00:09:44.839Z,15.82
2022-10-17T00:10:44.841Z,15.83
2022-10-17T00:11:44.838Z,15.84
2022-10-17T00:12:44.809Z,15.86
2022-10-17T00:13:44.812Z,15.88
2022-10-17T00:14:44.812Z,15.90
2022-10-17T00:15:45.040Z,15.91
2022-10-17T00:16:45.169Z,15.91
2022-10-17T00:17:45.979Z,15.92
2022-10-17T00:18:44.742Z,15.92
2022-10-17T00:19:44.732Z,15.95
2022-10-17T00:20:44.863Z,16.00
2022-10-17T00:21:44.774Z,15.98
2022-10-17T00:22:44.694Z,15.98
2022-10-17T00:23:44.892Z,15.98
2022-10-17T00:24:44.921Z,16.00
2022-10-17T00:25:44.853Z,16.02
2022-10-17T00:26:44.799Z,16.02
2022-10-17T00:27:44.737Z,16.02
2022-10-17T00:28:44.667Z,16.05
2022-10-17T00:29:44.671Z,16.05
2022-10-17T00:30:44.797Z,16.08
2022-10-17T00:31:44.644Z,16.09
2022-10-17T00:32:44.659Z,16.09
2022-10-17T00:33:44.584Z,16.12
2022-10-17T00:34:44.560Z,16.13
2022-10-17T00:35:44.547Z,16.16
2022-10-17T00:36:44.566Z,16.17
2022-10-17T00:37:44.555Z,16.20
2022-10-17T00:38:44.509Z,16.21
2022-10-17T00:39:44.505Z,16.21
2022-10-17T00:40:44.563Z,16.24
2022-10-17T00:41:44.498Z,16.26
2022-10-17T00:42:44.486Z,16.28
2022-10-17T00:43:44.458Z,16.28
2022-10-17T00:44:44.451Z,16.29
2022-10-17T00:45:44.459Z,16.32
2022-10-17T00:46:44.450Z,16.31
2022-10-17T00:47:44.473Z,16.32
2022-10-17T00:48:44.402Z,16.33
2022-10-17T00:49:44.401Z,16.32
2022-10-17T00:50:44.436Z,16.35
2022-10-17T00:51:44.412Z,16.35
2022-10-17T00:52:44.380Z,16.38
2022-10-17T00:53:44.405Z,16.38
2022-10-17T00:54:44.340Z,16.38
2022-10-17T00:55:44.332Z,16.39
2022-10-17T00:56:44.324Z,16.39
2022-10-17T00:57:44.352Z,16.41
2022-10-17T00:58:44.995Z,16.42
2022-10-17T00:59:44.309Z,16.43
2022-10-17T01:00:44.271Z,16.46
2022-10-17T01:01:44.315Z,16.47
2022-10-17T01:02:44.306Z,16.49
2022-10-17T01:03:44.299Z,16.49
2022-10-17T01:04:44.255Z,16.49
2022-10-17T01:05:44.232Z,16.49
2022-10-17T01:06:44.219Z,16.50
2022-10-17T01:07:44.216Z,16.50
2022-10-17T01:08:44.196Z,16.51
2022-10-17T01:09:44.184Z,16.50
2022-10-17T01:10:44.172Z,16.51
2022-10-17T01:11:44.163Z,16.53
2022-10-17T01:12:44.139Z,16.53
2022-10-17T01:13:44.201Z,16.53
2022-10-17T01:14:44.118Z,16.54
2022-10-17T01:15:44.114Z,16.56
2022-10-17T01:16:44.103Z,16.56
2022-10-17T01:17:44.094Z,16.57
2022-10-17T01:18:44.089Z,16.57
2022-10-17T01:19:44.090Z,16.58
2022-10-17T01:20:44.055Z,16.58
2022-10-17T01:21:44.060Z,16.58
2022-10-17T01:22:44.042Z,16.58
2022-10-17T01:23:44.031Z,16.58
2022-10-17T01:24:44.050Z,16.60
2022-10-17T01:25:44.046Z,16.60
2022-10-17T01:26:43.981Z,16.64
2022-10-17T01:27:43.982Z,16.61
2022-10-17T01:29:43.967Z,16.61
2022-10-17T01:30:43.945Z,16.64
2022-10-17T01:31:43.990Z,16.64
2022-10-17T01:32:43.933Z,16.61
2022-10-17T01:33:43.904Z,16.65
2022-10-17T01:34:43.930Z,16.66
2022-10-17T01:35:43.912Z,16.65
2022-10-17T01:36:43.891Z,16.66
2022-10-17T01:37:43.948Z,16.66
2022-10-17T01:38:43.865Z,16.68
2022-10-17T01:39:46.947Z,16.68
2022-10-17T01:40:43.844Z,16.66
2022-10-17T01:41:43.837Z,16.68
2022-10-17T01:42:43.815Z,16.66
2022-10-17T01:43:43.830Z,16.68
2022-10-17T01:44:43.816Z,16.66
2022-10-17T01:45:43.787Z,16.68
2022-10-17T01:46:43.875Z,16.68
2022-10-17T01:47:43.763Z,16.68
2022-10-17T01:48:43.768Z,16.68
2022-10-17T01:49:43.739Z,16.68
2022-10-17T01:50:43.755Z,16.66
2022-10-17T01:51:43.724Z,16.66
2022-10-17T01:52:43.720Z,16.65
2022-10-17T01:53:43.710Z,16.68
2022-10-17T01:54:43.684Z,16.69
2022-10-17T01:55:43.683Z,16.69
2022-10-17T01:56:43.698Z,16.69
2022-10-17T01:57:43.653Z,16.69
2022-10-17T01:58:43.651Z,16.71
2022-10-17T01:59:43.652Z,16.71
2022-10-17T02:00:43.627Z,16.72
2022-10-17T02:01:43.652Z,16.71
2022-10-17T02:02:43.621Z,16.72
2022-10-17T02:03:43.599Z,16.72
2022-10-17T02:04:43.572Z,16.74
2022-10-17T02:05:43.603Z,16.74
2022-10-17T02:06:43.568Z,16.75
2022-10-17T02:07:43.551Z,16.74
2022-10-17T02:08:43.540Z,16.74
2022-10-17T02:09:43.525Z,16.74
2022-10-17T02:10:43.571Z,16.75
2022-10-17T02:11:43.565Z,16.75
2022-10-17T02:12:43.476Z,16.75
2022-10-17T02:13:43.467Z,16.75
2022-10-17T02:14:43.465Z,16.76
2022-10-17T02:15:43.468Z,16.76
2022-10-17T02:16:43.446Z,16.76
2022-10-17T02:17:43.472Z,16.78
2022-10-17T02:18:43.437Z,16.78
2022-10-17T02:19:43.417Z,16.78
2022-10-17T02:20:43.457Z,16.78
2022-10-17T02:21:43.439Z,16.76
2022-10-17T02:22:43.379Z,16.76
2022-10-17T02:23:43.369Z,16.76
2022-10-17T02:24:43.351Z,16.75
2022-10-17T02:25:43.362Z,16.76
2022-10-17T02:26:43.328Z,16.76
2022-10-17T02:27:43.351Z,16.78
2022-10-17T02:28:43.366Z,16.78
2022-10-17T02:29:43.348Z,16.78
2022-10-17T02:30:43.303Z,16.79
2022-10-17T02:31:43.302Z,16.78
2022-10-17T02:32:46.600Z,16.76
2022-10-17T02:33:44.276Z,16.78
2022-10-17T02:34:43.240Z,16.78
2022-10-17T02:35:43.228Z,16.78
2022-10-17T02:36:43.241Z,16.78
2022-10-17T02:37:43.233Z,16.78
2022-10-17T02:38:43.204Z,16.78
2022-10-17T02:39:43.225Z,16.78
2022-10-17T02:40:43.183Z,16.78
2022-10-17T02:41:43.247Z,16.79
2022-10-17T02:42:43.195Z,16.81
2022-10-17T02:43:43.159Z,16.81
2022-10-17T02:44:43.145Z,16.79
2022-10-17T02:45:43.128Z,16.81
2022-10-17T02:46:43.122Z,16.81
2022-10-17T02:47:43.117Z,16.81
2022-10-17T02:48:43.116Z,16.81
2022-10-17T02:49:43.094Z,16.81
2022-10-17T02:50:43.121Z,16.81
2022-10-17T02:51:43.101Z,16.79
2022-10-17T02:52:43.039Z,16.83
2022-10-17T02:53:43.109Z,16.83
2022-10-17T02:54:43.042Z,16.84
2022-10-17T02:55:43.023Z,16.84
2022-10-17T02:56:43.060Z,16.86
2022-10-17T02:57:42.990Z,16.87
2022-10-17T02:58:42.981Z,16.86
2022-10-17T02:59:42.999Z,16.86
2022-10-17T03:00:42.992Z,16.87
2022-10-17T03:01:43.008Z,16.87
2022-10-17T03:02:42.963Z,16.89
2022-10-17T03:03:42.941Z,16.90
2022-10-17T03:04:42.922Z,16.90
2022-10-17T03:05:42.935Z,16.89
2022-10-17T03:06:42.902Z,16.89
2022-10-17T03:07:42.887Z,16.89
2022-10-17T03:08:42.872Z,16.89
2022-10-17T03:09:42.893Z,16.89
2022-10-17T03:10:42.853Z,16.89
2022-10-17T03:11:42.896Z,16.89
2022-10-17T03:12:42.838Z,16.90
2022-10-17T03:13:42.857Z,16.90
2022-10-17T03:14:42.817Z,16.91
2022-10-17T03:15:42.806Z,16.90
2022-10-17T03:16:42.808Z,16.91
2022-10-17T03:17:42.872Z,16.90
2022-10-17T03:18:45.380Z,16.93
2022-10-17T03:19:43.787Z,16.91
2022-10-17T03:20:42.747Z,16.94
2022-10-17T03:21:42.743Z,16.94
2022-10-17T03:22:42.718Z,16.94
2022-10-17T03:23:42.719Z,16.96
2022-10-17T03:24:42.704Z,16.97
2022-10-17T03:25:42.719Z,16.96
2022-10-17T03:26:43.761Z,16.99
2022-10-17T03:27:42.678Z,16.99
2022-10-17T03:28:42.680Z,17.01
2022-10-17T03:29:42.648Z,17.01
2022-10-17T03:30:42.701Z,17.02
2022-10-17T03:31:42.652Z,17.05
2022-10-17T03:32:42.600Z,17.04
2022-10-17T03:33:42.617Z,17.04
2022-10-17T03:34:42.609Z,17.04
2022-10-17T03:35:42.609Z,17.05
2022-10-17T03:36:42.582Z,17.02
2022-10-17T03:37:42.567Z,17.04
2022-10-17T03:38:42.576Z,17.04
2022-10-17T03:39:42.539Z,17.04
2022-10-17T03:40:43.463Z,17.04
2022-10-17T03:41:42.508Z,17.04
2022-10-17T03:42:42.532Z,17.05
2022-10-17T03:43:42.547Z,17.05
2022-10-17T03:44:42.503Z,17.06
2022-10-17T03:45:42.474Z,17.06
2022-10-17T03:46:42.456Z,17.08
2022-10-17T03:47:42.469Z,17.08
2022-10-17T03:48:42.433Z,17.08
2022-10-17T03:49:42.418Z,17.08
2022-10-17T03:50:42.481Z,17.09
2022-10-17T03:51:42.395Z,17.08
2022-10-17T03:52:42.396Z,17.06
2022-10-17T03:53:42.392Z,17.08
2022-10-17T03:54:42.373Z,17.05
2022-10-17T03:55:42.347Z,17.06
2022-10-17T03:56:42.401Z,17.06
2022-10-17T03:57:44.810Z,17.06
2022-10-17T03:58:42.318Z,17.06
2022-10-17T03:59:42.305Z,17.05
2022-10-17T04:00:42.309Z,17.06
2022-10-17T04:01:42.403Z,17.06
2022-10-17T04:02:42.285Z,17.05
2022-10-17T04:03:42.280Z,17.06
2022-10-17T04:04:42.281Z,17.06
2022-10-17T04:05:42.262Z,17.06
2022-10-17T04:06:42.233Z,17.06
2022-10-17T04:07:42.238Z,17.08
2022-10-17T04:08:42.243Z,17.08
2022-10-17T04:09:42.202Z,17.08
2022-10-17T04:10:42.183Z,17.08
2022-10-17T04:11:42.194Z,17.08
2022-10-17T04:12:42.159Z,17.08
2022-10-17T04:13:42.204Z,17.06
2022-10-17T04:14:42.187Z,17.08
2022-10-17T04:15:42.182Z,17.08
2022-10-17T04:16:42.131Z,17.09
2022-10-17T04:17:42.115Z,17.11
2022-10-17T04:18:42.096Z,17.11
2022-10-17T04:19:42.129Z,17.12
2022-10-17T04:20:42.117Z,17.12
2022-10-17T04:21:42.065Z,17.15
2022-10-17T04:22:42.064Z,17.15
2022-10-17T04:23:42.036Z,17.15
2022-10-17T04:24:42.082Z,17.14
2022-10-17T04:25:42.028Z,17.15
2022-10-17T04:26:42.010Z,17.15
2022-10-17T04:27:41.997Z,17.15
2022-10-17T04:28:42.007Z,17.15
2022-10-17T04:29:41.973Z,17.16
2022-10-17T04:30:45.101Z,17.16
2022-10-17T04:31:41.950Z,17.16
2022-10-17T04:32:41.953Z,17.19
2022-10-17T04:33:41.918Z,17.16
2022-10-17T04:34:41.918Z,17.19
2022-10-17T04:35:41.940Z,17.20
2022-10-17T04:36:41.945Z,17.20
2022-10-17T04:37:41.900Z,17.20
2022-10-17T04:38:41.872Z,17.19
2022-10-17T04:39:41.861Z,17.20
2022-10-17T04:40:41.854Z,17.23
2022-10-17T04:41:41.854Z,17.23
2022-10-17T04:42:41.863Z,17.26
2022-10-17T04:43:43.547Z,17.26
2022-10-17T04:44:42.803Z,17.26
2022-10-17T04:45:41.803Z,17.26
2022-10-17T04:46:41.785Z,17.26
2022-10-17T04:47:41.847Z,17.24
2022-10-17T04:48:41.784Z,17.27
2022-10-17T04:50:41.774Z,17.29
2022-10-17T04:51:41.735Z,17.30
2022-10-17T04:52:41.725Z,17.31
2022-10-17T04:53:41.746Z,17.30
2022-10-17T04:54:42.100Z,17.30
2022-10-17T04:55:41.803Z,17.30
2022-10-17T04:56:41.677Z,17.31
2022-10-17T04:57:41.661Z,17.31
2022-10-17T04:58:41.658Z,17.33
2022-10-17T04:59:41.681Z,17.33
2022-10-17T05:00:41.684Z,17.30
2022-10-17T05:01:41.624Z,17.33
2022-10-17T05:02:41.607Z,17.31
2022-10-17T05:03:41.602Z,17.31
2022-10-17T05:04:41.593Z,17.31
2022-10-17T05:05:41.613Z,17.31
2022-10-17T05:06:41.562Z,17.33
2022-10-17T05:07:41.625Z,17.31
2022-10-17T05:08:41.570Z,17.31
2022-10-17T05:09:41.541Z,17.31
2022-10-17T05:10:41.524Z,17.33
2022-10-17T05:11:41.503Z,17.33
2022-10-17T05:12:41.543Z,17.34
2022-10-17T05:13:41.527Z,17.36
2022-10-17T05:14:41.475Z,17.36
2022-10-17T05:15:41.475Z,17.36
2022-10-17T05:16:41.467Z,17.34
2022-10-17T05:17:41.446Z,17.38
2022-10-17T05:18:41.434Z,17.36
2022-10-17T05:19:41.432Z,17.36
2022-10-17T05:20:41.404Z,17.38
2022-10-17T05:21:41.396Z,17.38
2022-10-17T05:22:42.201Z,17.39
2022-10-17T05:23:41.388Z,17.39
2022-10-17T05:24:41.371Z,17.38
2022-10-17T05:25:41.384Z,17.39
2022-10-17T05:26:41.344Z,17.39
2022-10-17T05:27:41.336Z,17.39
2022-10-17T05:28:41.461Z,17.41
2022-10-17T05:29:41.313Z,17.39
2022-10-17T05:30:41.292Z,17.41
2022-10-17T05:31:41.320Z,17.42
2022-10-17T05:32:41.273Z,17.39
2022-10-17T05:33:41.273Z,17.42
2022-10-17T05:34:41.263Z,17.42
2022-10-17T05:35:41.243Z,17.42
2022-10-17T05:36:41.293Z,17.42
2022-10-17T05:37:41.208Z,17.42
2022-10-17T05:38:41.206Z,17.42
2022-10-17T05:39:41.236Z,17.41
2022-10-17T05:40:41.193Z,17.41
2022-10-17T05:41:41.195Z,17.42
2022-10-17T05:42:41.193Z,17.42
2022-10-17T05:43:41.154Z,17.42
2022-10-17T05:44:41.156Z,17.42
2022-10-17T05:45:41.132Z,17.41
2022-10-17T05:46:41.160Z,17.42
2022-10-17T05:47:41.126Z,17.42
2022-10-17T05:48:41.114Z,17.42
2022-10-17T05:49:51.245Z,17.42
2022-10-17T05:50:42.075Z,17.42
2022-10-17T05:51:41.078Z,17.42
2022-10-17T05:52:42.867Z,17.41
2022-10-17T05:53:41.034Z,17.41
2022-10-17T05:54:41.035Z,17.39
2022-10-17T05:55:41.015Z,17.39
2022-10-17T05:56:41.031Z,17.36
2022-10-17T05:57:41.028Z,17.34
2022-10-17T05:59:00.760Z,17.36
2022-10-17T05:59:42.006Z,17.34
2022-10-17T06:00:41.014Z,17.33
2022-10-17T06:01:40.997Z,17.31
2022-10-17T06:02:40.961Z,17.30
2022-10-17T06:03:40.931Z,17.30
2022-10-17T06:04:40.937Z,17.29
2022-10-17T06:05:40.931Z,17.26
2022-10-17T06:06:40.936Z,17.27
2022-10-17T06:07:40.979Z,17.27
2022-10-17T06:08:40.862Z,17.26
2022-10-17T06:09:40.877Z,17.27
2022-10-17T06:10:40.843Z,17.26
2022-10-17T06:11:40.871Z,17.26
2022-10-17T06:12:40.831Z,17.26
2022-10-17T06:13:40.809Z,17.27
2022-10-17T06:14:40.815Z,17.29
2022-10-17T06:15:40.815Z,17.29
2022-10-17T06:16:41.111Z,17.29
2022-10-17T06:17:40.767Z,17.29
2022-10-17T06:18:40.795Z,17.30
2022-10-17T06:19:40.748Z,17.29
2022-10-17T06:20:45.208Z,17.29
2022-10-17T06:21:41.764Z,17.29
2022-10-17T06:22:42.181Z,17.29
2022-10-17T06:23:40.974Z,17.29
2022-10-17T06:24:40.704Z,17.29
2022-10-17T06:25:41.324Z,17.29
2022-10-17T06:26:40.688Z,17.30
2022-10-17T06:27:40.764Z,17.30
2022-10-17T06:28:40.740Z,17.30
2022-10-17T06:29:40.660Z,17.31
2022-10-17T06:30:41.576Z,17.33
2022-10-17T06:31:40.610Z,17.31
2022-10-17T06:32:40.630Z,17.33
2022-10-17T06:33:40.598Z,17.34
2022-10-17T06:34:40.567Z,17.36
2022-10-17T06:35:40.585Z,17.39
2022-10-17T06:36:42.072Z,17.41
2022-10-17T06:37:40.965Z,17.41
2022-10-17T06:38:41.548Z,17.42
2022-10-17T06:39:40.530Z,17.42
2022-10-17T06:40:40.509Z,17.42
2022-10-17T06:41:40.591Z,17.44
2022-10-17T06:42:40.492Z,17.44
2022-10-17T06:43:40.479Z,17.45
2022-10-17T06:44:40.692Z,17.46
2022-10-17T06:45:40.459Z,17.48
2022-10-17T06:46:40.482Z,17.48
2022-10-17T06:47:40.472Z,17.49
2022-10-17T06:48:40.437Z,17.51
2022-10-17T06:49:41.898Z,17.52
2022-10-17T06:50:41.397Z,17.52
2022-10-17T06:51:40.394Z,17.56
2022-10-17T06:52:40.640Z,17.54
2022-10-17T06:53:41.372Z,17.59
2022-10-17T06:54:40.386Z,17.59
2022-10-17T06:55:40.359Z,17.59
2022-10-17T06:56:40.335Z,17.60
2022-10-17T06:57:40.476Z,17.60
2022-10-17T06:58:40.331Z,17.63
2022-10-17T06:59:40.422Z,17.63
2022-10-17T07:00:40.374Z,17.63
2022-10-17T07:01:43.102Z,17.64
2022-10-17T07:02:41.273Z,17.65
2022-10-17T07:03:40.259Z,17.65
2022-10-17T07:04:40.265Z,17.65
2022-10-17T07:05:40.271Z,17.65
2022-10-17T07:06:40.699Z,17.65
2022-10-17T07:07:43.121Z,17.67
2022-10-17T07:08:40.637Z,17.67
2022-10-17T07:09:40.200Z,17.67
2022-10-17T07:10:40.181Z,17.68
2022-10-17T07:11:40.545Z,17.70
2022-10-17T07:12:40.171Z,17.70
2022-10-17T07:13:41.089Z,17.71
2022-10-17T07:14:40.133Z,17.72
2022-10-17T07:15:40.192Z,17.74
2022-10-17T07:16:40.241Z,17.74
2022-10-17T07:17:40.221Z,17.74
2022-10-17T07:18:40.078Z,17.78
2022-10-17T07:19:40.071Z,17.79
2022-10-17T07:20:40.061Z,17.80
2022-10-17T07:21:40.084Z,17.83
2022-10-17T07:22:40.113Z,17.83
2022-10-17T07:23:40.046Z,17.86
2022-10-17T07:24:40.060Z,17.89
2022-10-17T07:25:40.346Z,17.92
2022-10-17T07:26:40.107Z,17.97
2022-10-17T07:27:40.006Z,17.98
2022-10-17T07:28:40.094Z,18.00
2022-10-17T07:29:39.967Z,18.04
2022-10-17T07:30:40.005Z,18.04
2022-10-17T07:31:39.978Z,18.05
2022-10-17T07:32:39.916Z,18.10
2022-10-17T07:33:40.066Z,18.11
2022-10-17T07:34:39.950Z,18.13
2022-10-17T07:35:39.929Z,18.16
2022-10-17T07:36:40.176Z,18.20
2022-10-17T07:37:39.875Z,18.22
2022-10-17T07:38:39.863Z,18.25
2022-10-17T07:39:39.940Z,18.25
2022-10-17T07:40:39.836Z,18.26
2022-10-17T07:41:39.843Z,18.28
2022-10-17T07:43:39.793Z,18.31
2022-10-17T07:44:39.790Z,18.29
2022-10-17T07:45:39.838Z,18.34
2022-10-17T07:46:40.856Z,18.33
2022-10-17T07:47:39.983Z,18.34
2022-10-17T07:48:39.962Z,18.34
2022-10-17T07:49:39.751Z,18.35
2022-10-17T07:50:40.394Z,18.34
2022-10-17T07:51:39.763Z,18.37
2022-10-17T07:52:39.711Z,18.37
2022-10-17T07:53:41.774Z,18.40
2022-10-17T07:54:39.842Z,18.43
2022-10-17T07:55:39.672Z,18.43
2022-10-17T07:56:39.679Z,18.45
2022-10-17T07:57:39.663Z,18.47
2022-10-17T07:58:39.728Z,18.49
2022-10-17T07:59:39.696Z,18.52
2022-10-17T08:00:39.722Z,18.55
2022-10-17T08:01:39.618Z,18.56
2022-10-17T08:02:39.596Z,18.58
2022-10-17T08:03:39.605Z,18.60
2022-10-17T08:04:39.565Z,18.62
2022-10-17T08:05:39.595Z,18.65
2022-10-17T08:06:39.566Z,18.66
2022-10-17T08:07:39.539Z,18.70
2022-10-17T08:08:39.531Z,18.71
2022-10-17T08:09:39.548Z,18.73
2022-10-17T08:10:39.517Z,18.73
2022-10-17T08:11:39.508Z,18.75
2022-10-17T08:12:39.493Z,18.74
2022-10-17T08:13:39.472Z,18.77
2022-10-17T08:14:39.460Z,18.77
2022-10-17T08:15:39.479Z,18.78
2022-10-17T08:16:39.446Z,18.80
2022-10-17T08:17:39.426Z,18.83
2022-10-17T08:18:39.420Z,18.84
2022-10-17T08:19:39.410Z,18.88
2022-10-17T08:20:39.410Z,18.89
2022-10-17T08:21:39.418Z,18.92
2022-10-17T08:22:39.370Z,18.93
2022-10-17T08:23:39.383Z,18.93
2022-10-17T08:24:39.353Z,18.98
2022-10-17T08:25:39.354Z,18.98
2022-10-17T08:26:42.477Z,18.99
2022-10-17T08:27:39.335Z,18.99
2022-10-17T08:28:39.389Z,18.99
2022-10-17T08:29:39.309Z,18.99
2022-10-17T08:30:39.283Z,19.00
2022-10-17T08:31:39.285Z,19.02
2022-10-17T08:32:39.262Z,19.02
2022-10-17T08:33:39.319Z,19.07
2022-10-17T08:34:39.242Z,19.08
2022-10-17T08:35:39.237Z,19.11
2022-10-17T08:36:39.222Z,19.14
2022-10-17T08:37:39.207Z,19.16
2022-10-17T08:38:43.077Z,19.19
2022-10-17T08:39:39.234Z,19.19
2022-10-17T08:40:39.197Z,19.21
2022-10-17T08:41:39.162Z,19.24
2022-10-17T08:42:39.149Z,19.24
2022-10-17T08:43:39.144Z,19.29
2022-10-17T08:44:39.152Z,19.31
2022-10-17T08:45:39.152Z,19.36
2022-10-17T08:46:39.116Z,19.37
2022-10-17T08:47:39.110Z,19.39
2022-10-17T08:48:41.663Z,19.40
2022-10-17T08:49:40.091Z,19.45
2022-10-17T08:50:39.081Z,19.47
2022-10-17T08:51:39.063Z,19.47
2022-10-17T08:52:39.039Z,19.48
2022-10-17T08:53:39.033Z,19.49
2022-10-17T08:54:39.042Z,19.51
2022-10-17T08:55:41.486Z,19.54
2022-10-17T08:56:55.335Z,19.56
2022-10-17T08:57:39.997Z,19.56
2022-10-17T08:58:38.975Z,19.58
2022-10-17T08:59:38.993Z,19.59
2022-10-17T09:00:38.948Z,19.59
2022-10-17T09:01:38.961Z,19.59
2022-10-17T09:02:39.098Z,19.59
2022-10-17T09:03:38.917Z,19.63
2022-10-17T09:04:38.926Z,19.67
2022-10-17T09:05:38.945Z,19.70
2022-10-17T09:06:38.907Z,19.74
2022-10-17T09:07:38.867Z,19.77
2022-10-17T09:08:38.865Z,19.79
2022-10-17T09:09:38.859Z,19.81
2022-10-17T09:10:38.857Z,19.79
2022-10-17T09:11:38.864Z,19.82
2022-10-17T09:12:38.821Z,19.85
2022-10-17T09:13:38.828Z,19.89
2022-10-17T09:14:38.807Z,19.94
2022-10-17T09:15:38.800Z,19.96
2022-10-17T09:16:38.777Z,20.02
2022-10-17T09:17:38.812Z,20.04
2022-10-17T09:18:38.758Z,20.09
2022-10-17T09:19:38.751Z,20.13
2022-10-17T09:20:42.381Z,20.19
2022-10-17T09:21:39.531Z,20.25
2022-10-17T09:22:40.008Z,20.26
2022-10-17T09:23:41.819Z,20.31
2022-10-17T09:24:39.743Z,20.31
2022-10-17T09:25:43.927Z,20.32
2022-10-17T09:26:44.845Z,20.31
2022-10-17T09:27:38.723Z,20.31
2022-10-17T09:28:38.765Z,20.31
2022-10-17T09:29:43.621Z,20.29
2022-10-17T09:30:45.257Z,20.28
2022-10-17T09:31:39.635Z,20.28
2022-10-17T09:32:38.613Z,20.25
2022-10-17T09:33:53.292Z,20.24
2022-10-17T09:34:39.588Z,20.25
2022-10-17T09:35:38.573Z,20.24
2022-10-17T09:36:38.560Z,20.25
2022-10-17T09:37:38.553Z,20.24
2022-10-17T09:38:38.536Z,20.22
2022-10-17T09:39:38.559Z,20.19
2022-10-17T09:40:38.509Z,20.18
2022-10-17T09:41:47.175Z,20.16
2022-10-17T09:42:39.488Z,20.13
2022-10-17T09:43:38.567Z,20.11
2022-10-17T09:44:38.490Z,20.10
2022-10-17T09:45:38.460Z,20.07
2022-10-17T09:46:38.599Z,20.07
2022-10-17T09:47:38.431Z,20.06
2022-10-17T09:48:38.456Z,20.04
2022-10-17T09:49:38.450Z,20.03
2022-10-17T09:50:38.392Z,20.03
2022-10-17T09:51:38.394Z,20.03
2022-10-17T09:52:38.562Z,20.02
2022-10-17T09:53:38.362Z,20.00
2022-10-17T09:54:38.349Z,20.02
2022-10-17T09:55:38.378Z,20.02
2022-10-17T09:56:38.343Z,20.00
2022-10-17T09:57:38.339Z,20.00
2022-10-17T09:58:38.304Z,19.99
2022-10-17T09:59:39.260Z,19.99
2022-10-17T10:00:38.359Z,20.00
2022-10-17T10:01:38.282Z,20.00
2022-10-17T10:02:39.138Z,20.02
2022-10-17T10:03:38.279Z,20.00
2022-10-17T10:04:53.051Z,19.99
2022-10-17T10:05:39.236Z,19.99
2022-10-17T10:06:38.236Z,19.96
2022-10-17T10:07:38.278Z,19.95
2022-10-17T10:08:38.190Z,19.94
2022-10-17T10:09:39.620Z,19.94
2022-10-17T10:10:38.196Z,19.94
2022-10-17T10:11:38.195Z,19.92
2022-10-17T10:12:38.166Z,19.92
2022-10-17T10:13:38.144Z,19.91
2022-10-17T10:14:38.129Z,19.91
2022-10-17T10:15:38.140Z,19.89
2022-10-17T10:16:38.128Z,19.89
2022-10-17T10:17:38.372Z,19.88
2022-10-17T10:18:38.093Z,19.89
2022-10-17T10:19:40.041Z,19.88
2022-10-17T10:20:40.014Z,19.89
2022-10-17T10:21:38.144Z,19.89
2022-10-17T10:22:38.112Z,19.89
2022-10-17T10:23:38.296Z,19.91
2022-10-17T10:24:38.036Z,19.91
2022-10-17T10:25:38.022Z,19.94
2022-10-17T10:26:37.996Z,19.96
2022-10-17T10:27:38.036Z,19.99
2022-10-17T10:28:38.050Z,20.00
2022-10-17T10:29:37.985Z,20.03
2022-10-17T10:30:39.928Z,20.06
2022-10-17T10:31:38.053Z,20.09
2022-10-17T10:32:37.967Z,20.11
2022-10-17T10:33:41.585Z,20.14
2022-10-17T10:34:37.921Z,20.16
2022-10-17T10:35:37.925Z,20.19
2022-10-17T10:37:38.241Z,20.25
2022-10-17T10:38:37.902Z,20.26
2022-10-17T10:39:37.868Z,20.28
2022-10-17T10:40:37.843Z,20.29
2022-10-17T10:41:37.838Z,20.29
2022-10-17T10:42:37.821Z,20.28
2022-10-17T10:43:38.559Z,20.28
2022-10-17T10:44:37.795Z,20.28
2022-10-17T10:45:48.396Z,20.28
2022-10-17T10:46:38.793Z,20.28
2022-10-17T10:47:37.901Z,20.28
2022-10-17T10:48:37.760Z,20.29
2022-10-17T10:49:37.772Z,20.29
2022-10-17T10:50:40.597Z,20.29
2022-10-17T10:51:40.181Z,20.28
2022-10-17T10:52:37.765Z,20.25
2022-10-17T10:53:37.835Z,20.22
2022-10-17T10:55:37.678Z,20.18
2022-10-17T10:56:38.554Z,20.16
2022-10-17T10:57:37.667Z,20.14
2022-10-17T10:58:40.279Z,20.14
2022-10-17T10:59:37.690Z,20.13
2022-10-17T11:00:37.711Z,20.11
2022-10-17T11:01:38.565Z,20.10
2022-10-17T11:02:37.606Z,20.09
2022-10-17T11:03:37.630Z,20.07
2022-10-17T11:04:37.584Z,20.07
2022-10-17T11:05:37.598Z,20.07
2022-10-17T11:06:37.615Z,20.06
2022-10-17T11:07:37.537Z,20.06
2022-10-17T11:08:37.544Z,20.06
2022-10-17T11:09:37.538Z,20.04
2022-10-17T11:10:37.513Z,20.04
2022-10-17T11:11:37.499Z,20.03
2022-10-17T11:12:37.555Z,20.03
2022-10-17T11:13:37.484Z,20.02
2022-10-17T11:14:37.459Z,20.02
2022-10-17T11:15:37.591Z,20.02
2022-10-17T11:16:37.454Z,20.00
2022-10-17T11:17:38.253Z,20.02
2022-10-17T11:18:37.459Z,20.02
2022-10-17T11:19:37.446Z,20.02
2022-10-17T11:20:37.422Z,20.00
2022-10-17T11:21:37.426Z,20.00
2022-10-17T11:22:37.433Z,19.99
2022-10-17T11:23:37.404Z,20.00
2022-10-17T11:24:37.375Z,19.99
2022-10-17T11:25:37.355Z,20.02
2022-10-17T11:26:37.379Z,20.00
2022-10-17T11:27:37.334Z,19.99
2022-10-17T11:28:37.436Z,20.00
2022-10-17T11:29:37.328Z,20.00
2022-10-17T11:30:37.351Z,20.00
2022-10-17T11:31:37.329Z,19.99
2022-10-17T11:32:37.279Z,20.00
2022-10-17T11:33:37.289Z,20.02
2022-10-17T11:34:37.246Z,20.02
2022-10-17T11:35:37.279Z,20.03
2022-10-17T11:36:37.238Z,20.03
2022-10-17T11:37:37.237Z,20.06
2022-10-17T11:38:37.198Z,20.04
2022-10-17T11:39:37.604Z,20.06
2022-10-17T11:40:37.258Z,20.07
2022-10-17T11:41:37.191Z,20.10
2022-10-17T11:42:37.160Z,20.13
2022-10-17T11:43:37.150Z,20.14
2022-10-17T11:44:37.182Z,20.16
2022-10-17T11:45:37.141Z,20.21
2022-10-17T11:46:37.201Z,20.24
2022-10-17T11:47:37.102Z,20.26
2022-10-17T11:48:37.103Z,20.26
2022-10-17T11:49:40.521Z,20.28
2022-10-17T11:52:55.574Z,20.32
2022-10-17T11:53:38.044Z,20.34
2022-10-17T11:54:37.079Z,20.34
2022-10-17T11:55:37.965Z,20.34
2022-10-17T11:56:41.873Z,20.36
2022-10-17T11:57:38.536Z,20.34
2022-10-17T11:58:37.556Z,20.36
2022-10-17T11:59:36.990Z,20.34
2022-10-17T12:00:39.278Z,20.36
2022-10-17T12:01:38.070Z,20.34
2022-10-17T12:02:36.988Z,20.32
2022-10-17T12:03:36.959Z,20.31
2022-10-17T12:04:37.905Z,20.31
2022-10-17T12:05:36.908Z,20.29
2022-10-17T12:06:36.912Z,20.28
2022-10-17T12:07:36.916Z,20.25
2022-10-17T12:08:36.938Z,20.25
2022-10-17T12:09:36.923Z,20.24
2022-10-17T12:10:36.877Z,20.22
2022-10-17T12:11:36.851Z,20.22
2022-10-17T12:12:36.861Z,20.21
2022-10-17T12:13:36.812Z,20.21
2022-10-17T12:14:36.835Z,20.21
2022-10-17T12:15:36.798Z,20.18
2022-10-17T12:16:36.838Z,20.18
2022-10-17T12:17:36.790Z,20.16
2022-10-17T12:18:36.767Z,20.16
2022-10-17T12:19:36.836Z,20.16
2022-10-17T12:20:36.742Z,20.14
2022-10-17T12:21:40.361Z,20.14
2022-10-17T12:22:37.726Z,20.13
2022-10-17T12:23:36.704Z,20.14
2022-10-17T12:24:36.710Z,20.16
2022-10-17T12:25:36.735Z,20.18
2022-10-17T12:26:36.676Z,20.19
2022-10-17T12:27:36.665Z,20.18
2022-10-17T12:28:36.724Z,20.16
2022-10-17T12:29:36.659Z,20.14
2022-10-17T12:30:36.664Z,20.13
2022-10-17T12:31:36.618Z,20.10
2022-10-17T12:32:53.369Z,20.09
2022-10-17T12:33:39.079Z,20.07
2022-10-17T12:34:36.644Z,20.04
2022-10-17T12:35:36.607Z,20.02
2022-10-17T12:36:36.582Z,20.00
2022-10-17T12:37:36.563Z,19.99
2022-10-17T12:38:36.568Z,19.96
2022-10-17T12:39:36.578Z,19.96
2022-10-17T12:40:36.564Z,19.94
2022-10-17T12:41:36.520Z,19.92
2022-10-17T12:42:36.502Z,19.92
2022-10-17T12:43:36.525Z,19.89
2022-10-17T12:44:36.494Z,19.88
2022-10-17T12:45:36.473Z,19.86
2022-10-17T12:46:36.492Z,19.85
2022-10-17T12:47:36.454Z,19.86
2022-10-17T12:48:37.386Z,19.84
2022-10-17T12:49:36.440Z,19.82
2022-10-17T12:50:38.150Z,19.79
2022-10-17T12:51:37.887Z,19.77
2022-10-17T12:52:36.455Z,19.77
2022-10-17T12:53:36.386Z,19.77
2022-10-17T12:54:46.998Z,19.74
2022-10-17T12:55:37.371Z,19.73
2022-10-17T12:56:36.523Z,19.73
2022-10-17T12:57:36.327Z,19.74
2022-10-17T12:58:36.358Z,19.73
2022-10-17T12:59:36.319Z,19.74